createdAt,value
2017-10-03T00:01:47.142Z,13.30
2017-10-03T00:04:14.615Z,13.30
2017-10-03T00:06:42.071Z,13.20
2017-10-03T00:09:12.758Z,13.20
2017-10-03T00:11:40.228Z,13.10
2017-10-03T00:14:07.695Z,13.00
2017-10-03T00:16:35.921Z,12.80
2017-10-03T00:19:04.168Z,12.80
2017-10-03T00:21:31.626Z,12.80
2017-10-03T00:23:59.100Z,12.70
2017-10-03T00:26:27.377Z,12.60
2017-10-03T00:28:55.614Z,12.60
2017-10-03T00:31:23.108Z,12.60
2017-10-03T00:33:50.579Z,12.60
2017-10-03T00:36:18.815Z,12.50
2017-10-03T00:38:46.304Z,12.40
2017-10-03T00:41:13.766Z,12.50
2017-10-03T00:43:41.843Z,12.50
2017-10-03T00:46:10.091Z,12.40
2017-10-03T00:48:37.559Z,12.40
2017-10-03T00:51:05.032Z,12.40
2017-10-03T00:53:33.263Z,12.40
2017-10-03T00:56:00.731Z,12.40
2017-10-03T00:58:28.198Z,12.50
2017-10-03T01:01:08.155Z,12.50
2017-10-03T01:03:35.642Z,12.50
2017-10-03T01:06:03.120Z,12.60
2017-10-03T01:08:31.343Z,12.70
2017-10-03T01:10:58.818Z,12.70
2017-10-03T01:13:26.395Z,12.80
2017-10-03T01:15:53.880Z,12.90
2017-10-03T01:18:22.103Z,12.80
2017-10-03T01:20:49.570Z,12.80
2017-10-03T01:23:17.034Z,12.70
2017-10-03T01:25:44.587Z,12.70
2017-10-03T01:28:12.191Z,12.60
2017-10-03T01:30:40.150Z,12.60
2017-10-03T01:33:08.379Z,12.70
2017-10-03T01:35:35.858Z,12.70
2017-10-03T01:38:06.046Z,12.70
2017-10-03T01:40:33.543Z,12.70
2017-10-03T01:43:01.118Z,12.70
2017-10-03T01:45:29.362Z,12.70
2017-10-03T01:47:56.823Z,12.90
2017-10-03T01:50:24.297Z,12.70
2017-10-03T01:52:53.270Z,12.70
2017-10-03T01:55:20.749Z,12.70
2017-10-03T01:57:48.214Z,12.80
2017-10-03T02:00:15.704Z,12.70
2017-10-03T02:02:43.173Z,12.70
2017-10-03T02:05:10.639Z,12.70
2017-10-03T02:07:38.143Z,12.80
2017-10-03T02:10:05.691Z,12.80
2017-10-03T02:12:33.170Z,12.80
2017-10-03T02:15:00.644Z,12.80
2017-10-03T02:17:28.871Z,12.80
2017-10-03T02:19:56.349Z,12.80
2017-10-03T02:22:23.815Z,12.90
2017-10-03T02:24:51.283Z,13.00
2017-10-03T02:27:18.827Z,13.10
2017-10-03T02:29:47.909Z,13.20
2017-10-03T02:32:15.406Z,13.20
2017-10-03T02:34:43.678Z,13.30
2017-10-03T02:37:11.918Z,13.30
2017-10-03T02:39:39.374Z,13.30
2017-10-03T02:42:06.946Z,13.30
2017-10-03T02:44:34.405Z,13.40
2017-10-03T02:47:01.879Z,13.40
2017-10-03T02:49:29.431Z,13.30
2017-10-03T02:51:56.899Z,13.30
2017-10-03T02:54:24.356Z,13.30
2017-10-03T02:56:51.908Z,13.30
2017-10-03T02:59:19.366Z,13.20
2017-10-03T03:01:46.923Z,13.10
2017-10-03T03:04:14.391Z,13.00
2017-10-03T03:06:41.874Z,13.10
2017-10-03T03:09:10.098Z,13.00
2017-10-03T03:11:37.697Z,13.00
2017-10-03T03:14:05.231Z,13.00
2017-10-03T03:16:32.700Z,13.00
2017-10-03T03:19:01.675Z,12.90
2017-10-03T03:21:29.151Z,12.80
2017-10-03T03:23:58.153Z,12.90
2017-10-03T03:26:25.730Z,12.90
2017-10-03T03:28:53.984Z,13.00
2017-10-03T03:31:22.212Z,13.00
2017-10-03T03:33:49.687Z,13.00
2017-10-03T03:36:17.179Z,13.00
2017-10-03T03:38:44.663Z,13.00
2017-10-03T03:41:12.882Z,13.10
2017-10-03T03:43:40.359Z,13.10
2017-10-03T03:46:07.814Z,13.20
2017-10-03T03:48:35.382Z,13.20
2017-10-03T03:51:02.955Z,13.10
2017-10-03T03:53:30.429Z,13.20
2017-10-03T03:55:58.667Z,13.00
2017-10-03T03:58:26.134Z,13.00
2017-10-03T04:03:26.488Z,13.10
2017-10-03T04:05:53.959Z,13.00
2017-10-03T04:08:21.423Z,12.90
2017-10-03T04:10:48.896Z,12.90
2017-10-03T04:13:16.374Z,13.00
2017-10-03T04:15:43.846Z,13.00
2017-10-03T04:18:12.080Z,12.90
2017-10-03T04:20:39.543Z,12.90
2017-10-03T04:23:07.005Z,12.90
2017-10-03T04:25:34.468Z,12.90
2017-10-03T04:28:01.930Z,12.90
2017-10-03T04:30:29.408Z,12.80
2017-10-03T04:32:57.635Z,12.80
2017-10-03T04:35:25.107Z,12.70
2017-10-03T04:37:52.576Z,12.60
2017-10-03T04:40:20.053Z,12.60
2017-10-03T04:42:48.285Z,12.50
2017-10-03T04:45:15.759Z,12.50
2017-10-03T04:47:43.221Z,12.50
2017-10-03T04:50:10.702Z,12.40
2017-10-03T04:52:38.934Z,12.40
2017-10-03T04:55:06.403Z,12.40
2017-10-03T04:57:34.629Z,12.40
2017-10-03T05:00:02.863Z,12.40
2017-10-03T05:02:30.334Z,12.30
2017-10-03T05:04:57.790Z,12.40
2017-10-03T05:07:25.276Z,12.40
2017-10-03T05:09:53.502Z,12.40
2017-10-03T05:12:20.975Z,12.30
2017-10-03T05:14:48.446Z,12.40
2017-10-03T05:17:15.923Z,12.40
2017-10-03T05:19:44.150Z,12.30
2017-10-03T05:22:12.394Z,12.30
2017-10-03T05:24:39.862Z,12.30
2017-10-03T05:27:07.325Z,12.30
2017-10-03T05:29:34.782Z,12.30
2017-10-03T05:32:02.274Z,12.30
2017-10-03T05:34:29.729Z,12.40
2017-10-03T05:36:57.200Z,12.30
2017-10-03T05:39:24.659Z,12.40
2017-10-03T05:41:52.149Z,12.40
2017-10-03T05:44:19.637Z,12.40
2017-10-03T05:46:47.099Z,12.40
2017-10-03T05:49:14.571Z,12.30
2017-10-03T05:51:42.032Z,12.40
2017-10-03T05:54:10.274Z,12.40
2017-10-03T05:56:37.753Z,12.40
2017-10-03T05:59:05.231Z,12.50
2017-10-03T06:01:32.685Z,12.40
2017-10-03T06:04:00.166Z,12.40
2017-10-03T06:06:28.437Z,12.50
2017-10-03T06:08:56.107Z,12.40
2017-10-03T06:11:23.603Z,12.50
2017-10-03T06:13:51.858Z,12.50
2017-10-03T06:16:19.320Z,12.50
2017-10-03T06:18:47.552Z,12.50
2017-10-03T06:21:15.019Z,12.50
2017-10-03T06:23:42.478Z,12.50
2017-10-03T06:26:11.320Z,12.60
2017-10-03T06:28:38.845Z,12.60
2017-10-03T06:31:06.415Z,12.80
2017-10-03T06:33:34.639Z,12.70
2017-10-03T06:36:02.118Z,12.60
2017-10-03T06:38:29.579Z,12.60
2017-10-03T06:40:57.051Z,12.70
2017-10-03T06:43:24.514Z,12.60
2017-10-03T06:45:51.987Z,12.80
2017-10-03T06:48:20.268Z,12.80
2017-10-03T06:50:48.515Z,12.90
2017-10-03T06:53:15.983Z,12.90
2017-10-03T06:55:43.551Z,12.90
2017-10-03T06:58:11.010Z,12.90
2017-10-03T07:00:38.492Z,12.90
2017-10-03T07:03:06.753Z,12.90
2017-10-03T07:05:34.229Z,12.90
2017-10-03T07:08:01.705Z,12.90
2017-10-03T07:10:29.935Z,13.10
2017-10-03T07:12:57.407Z,13.10
2017-10-03T07:15:25.008Z,13.10
2017-10-03T07:17:52.470Z,13.20
2017-10-03T07:20:19.943Z,13.20
2017-10-03T07:22:47.497Z,13.20
2017-10-03T07:25:14.979Z,13.20
2017-10-03T07:27:43.205Z,13.20
2017-10-03T07:30:10.684Z,13.20
2017-10-03T07:32:38.149Z,13.30
2017-10-03T07:35:05.610Z,13.30
2017-10-03T07:37:33.072Z,13.40
2017-10-03T07:40:01.335Z,13.50
2017-10-03T07:42:29.592Z,13.60
2017-10-03T07:44:57.049Z,13.60
2017-10-03T07:47:24.531Z,13.70
2017-10-03T07:49:52.085Z,13.70
2017-10-03T07:52:19.556Z,13.70
2017-10-03T07:54:47.106Z,13.70
2017-10-03T07:57:14.569Z,13.70
2017-10-03T07:59:42.047Z,13.70
2017-10-03T08:02:10.296Z,13.70
2017-10-03T08:04:37.759Z,13.70
2017-10-03T08:07:05.246Z,13.80
2017-10-03T08:09:33.486Z,13.80
2017-10-03T08:12:00.942Z,13.80
2017-10-03T08:14:28.507Z,13.80
2017-10-03T08:16:56.075Z,13.80
2017-10-03T08:19:23.537Z,13.90
2017-10-03T08:21:51.020Z,13.80
2017-10-03T08:24:19.243Z,13.80
2017-10-03T08:26:46.818Z,13.80
2017-10-03T08:29:14.391Z,13.70
2017-10-03T08:31:43.367Z,13.80
2017-10-03T08:34:10.835Z,13.80
2017-10-03T08:36:38.387Z,13.80
2017-10-03T08:39:05.854Z,13.80
2017-10-03T08:41:34.138Z,13.90
2017-10-03T08:44:01.594Z,13.80
2017-10-03T08:46:29.087Z,13.80
2017-10-03T08:48:56.570Z,13.80
2017-10-03T08:51:24.035Z,13.80
2017-10-03T08:53:51.498Z,13.80
2017-10-03T08:56:18.962Z,14.00
2017-10-03T08:58:46.442Z,13.90
2017-10-03T09:01:15.437Z,14.00
2017-10-03T09:03:43.690Z,14.00
2017-10-03T09:06:11.163Z,14.10
2017-10-03T09:08:38.635Z,14.10
2017-10-03T09:11:06.135Z,14.00
2017-10-03T09:13:33.627Z,14.10
2017-10-03T09:16:01.109Z,14.20
2017-10-03T09:18:28.671Z,14.30
2017-10-03T09:20:56.131Z,14.40
2017-10-03T09:23:23.666Z,14.30
2017-10-03T09:25:51.139Z,14.30
2017-10-03T09:28:18.706Z,14.20
2017-10-03T09:30:46.278Z,14.10
2017-10-03T09:33:14.086Z,14.00
2017-10-03T09:35:42.521Z,14.00
2017-10-03T09:38:10.743Z,14.10
2017-10-03T09:40:38.248Z,14.00
2017-10-03T09:43:05.707Z,14.20
2017-10-03T09:45:33.995Z,14.40
2017-10-03T09:48:01.539Z,14.40
2017-10-03T09:50:29.014Z,14.60
2017-10-03T09:52:56.500Z,14.70
2017-10-03T09:55:24.320Z,14.80
2017-10-03T09:57:53.317Z,15.00
2017-10-03T10:00:20.793Z,15.00
2017-10-03T10:02:48.251Z,15.20
2017-10-03T10:05:15.727Z,15.40
2017-10-03T10:07:44.414Z,15.30
2017-10-03T10:10:12.774Z,15.30
2017-10-03T10:12:40.236Z,15.20
2017-10-03T10:15:08.512Z,15.50
2017-10-03T10:17:36.055Z,15.50
2017-10-03T10:20:03.623Z,15.80
2017-10-03T10:22:32.680Z,16.00
2017-10-03T10:25:00.148Z,16.10
2017-10-03T10:27:27.611Z,16.20
2017-10-03T10:29:55.113Z,16.40
2017-10-03T10:32:23.334Z,16.20
2017-10-03T10:34:50.834Z,16.20
2017-10-03T10:37:18.391Z,16.20
2017-10-03T10:39:45.938Z,16.40
2017-10-03T10:42:13.502Z,16.50
2017-10-03T10:44:40.981Z,16.40
2017-10-03T10:47:08.455Z,16.30
2017-10-03T10:49:35.927Z,16.20
2017-10-03T10:52:03.484Z,16.10
2017-10-03T10:54:31.753Z,15.90
2017-10-03T10:56:59.215Z,15.90
2017-10-03T10:59:28.435Z,16.00
2017-10-03T11:01:56.982Z,16.00
2017-10-03T11:04:24.571Z,16.00
2017-10-03T11:06:53.411Z,16.10
2017-10-03T11:09:21.060Z,16.10
2017-10-03T11:11:48.530Z,16.20
2017-10-03T11:14:16.011Z,16.40
2017-10-03T11:16:43.584Z,16.50
2017-10-03T11:19:11.140Z,16.70
2017-10-03T11:21:38.703Z,16.80
2017-10-03T11:24:18.163Z,16.80
2017-10-03T11:26:45.712Z,16.80
2017-10-03T11:29:13.172Z,16.80
2017-10-03T11:31:40.719Z,16.80
2017-10-03T11:34:08.943Z,17.10
2017-10-03T11:36:36.418Z,17.00
2017-10-03T11:39:03.930Z,16.90
2017-10-03T11:41:31.483Z,17.10
2017-10-03T11:43:59.044Z,17.00
2017-10-03T11:46:26.513Z,16.70
2017-10-03T11:48:53.965Z,16.70
2017-10-03T11:51:21.524Z,16.90
2017-10-03T11:53:48.984Z,16.90
2017-10-03T11:56:16.533Z,16.90
2017-10-03T11:58:43.993Z,16.90
2017-10-03T12:01:11.463Z,17.10
2017-10-03T12:03:38.917Z,17.10
2017-10-03T12:06:07.162Z,16.50
2017-10-03T12:08:34.642Z,16.50
2017-10-03T12:11:02.190Z,16.50
2017-10-03T12:13:29.760Z,16.40
2017-10-03T12:15:57.226Z,16.50
2017-10-03T12:18:24.683Z,16.60
2017-10-03T12:20:52.141Z,16.60
2017-10-03T12:23:19.627Z,16.60
2017-10-03T12:25:47.876Z,16.60
2017-10-03T12:28:15.432Z,16.60
2017-10-03T12:30:42.986Z,16.60
2017-10-03T12:33:10.551Z,16.40
2017-10-03T12:35:38.110Z,16.30
2017-10-03T12:38:05.575Z,16.00
2017-10-03T12:40:33.123Z,16.00
2017-10-03T12:43:00.596Z,15.90
2017-10-03T12:45:28.150Z,16.00
2017-10-03T12:47:55.627Z,16.00
2017-10-03T12:50:23.085Z,16.10
2017-10-03T12:52:50.553Z,16.00
2017-10-03T12:55:18.010Z,15.70
2017-10-03T12:57:45.495Z,15.30
2017-10-03T13:00:12.951Z,15.00
2017-10-03T13:02:40.426Z,14.70
2017-10-03T13:05:07.900Z,14.60
2017-10-03T13:07:36.213Z,14.50
2017-10-03T13:10:03.666Z,14.50
2017-10-03T13:12:31.143Z,14.50
2017-10-03T13:14:58.606Z,14.60
2017-10-03T13:17:26.078Z,14.70
2017-10-03T13:19:53.534Z,14.70
2017-10-03T13:22:21.015Z,14.70
2017-10-03T13:24:48.471Z,14.70
2017-10-03T13:27:15.957Z,14.80
2017-10-03T13:29:47.909Z,14.80
2017-10-03T13:32:15.447Z,14.90
2017-10-03T13:34:42.923Z,14.90
2017-10-03T13:37:11.155Z,14.90
2017-10-03T13:39:38.631Z,14.90
2017-10-03T13:42:06.100Z,15.00
2017-10-03T13:44:33.555Z,14.90
2017-10-03T13:47:01.022Z,14.90
2017-10-03T13:49:29.251Z,15.00
2017-10-03T13:51:56.823Z,15.00
2017-10-03T13:54:24.285Z,15.10
2017-10-03T13:56:51.849Z,15.30
2017-10-03T13:59:19.344Z,15.40
2017-10-03T14:01:46.803Z,15.40
2017-10-03T14:04:14.279Z,15.40
2017-10-03T14:06:41.744Z,15.30
2017-10-03T14:09:09.224Z,15.30
2017-10-03T14:11:36.700Z,15.30
2017-10-03T14:14:04.174Z,15.20
2017-10-03T14:16:32.398Z,14.90
2017-10-03T14:19:20.806Z,14.90
2017-10-03T14:21:49.034Z,14.80
2017-10-03T14:24:16.601Z,14.80
2017-10-03T14:26:44.065Z,14.80
2017-10-03T14:29:11.632Z,14.80
2017-10-03T14:31:39.187Z,14.70
2017-10-03T14:34:06.655Z,14.50
2017-10-03T14:36:34.137Z,14.60
2017-10-03T14:39:02.361Z,14.70
2017-10-03T14:41:29.848Z,14.70
2017-10-03T14:43:57.310Z,14.90
2017-10-03T14:46:25.569Z,14.90
2017-10-03T14:48:53.038Z,14.90
2017-10-03T14:51:20.496Z,15.00
2017-10-03T14:53:47.979Z,15.00
2017-10-03T14:56:15.439Z,14.90
2017-10-03T14:58:42.902Z,14.90
2017-10-03T15:01:11.130Z,15.00
2017-10-03T15:03:38.760Z,15.00
2017-10-03T15:06:06.227Z,15.10
2017-10-03T15:08:33.704Z,15.10
2017-10-03T15:11:01.378Z,15.20
2017-10-03T15:13:28.882Z,15.40
2017-10-03T15:15:57.118Z,15.50
2017-10-03T15:18:24.595Z,15.50
2017-10-03T15:20:52.075Z,15.70
2017-10-03T15:23:20.312Z,15.60
2017-10-03T15:25:47.775Z,15.60
2017-10-03T15:28:15.957Z,15.50
2017-10-03T15:30:43.421Z,15.70
2017-10-03T15:33:11.107Z,15.70
2017-10-03T15:35:38.579Z,15.70
2017-10-03T15:38:06.050Z,15.60
2017-10-03T15:40:33.514Z,15.60
2017-10-03T15:43:01.738Z,15.50
2017-10-03T15:45:29.230Z,15.50
2017-10-03T15:47:56.725Z,15.40
2017-10-03T15:50:24.243Z,15.20
2017-10-03T15:52:51.805Z,15.10
2017-10-03T15:55:19.287Z,14.90
2017-10-03T15:57:47.514Z,14.60
2017-10-03T16:00:14.986Z,14.60
2017-10-03T16:02:42.461Z,14.50
2017-10-03T16:05:09.931Z,14.50
2017-10-03T16:07:38.167Z,14.40
2017-10-03T16:10:05.629Z,14.40
2017-10-03T16:12:33.702Z,14.40
2017-10-03T16:15:01.208Z,14.40
2017-10-03T16:17:28.741Z,14.40
2017-10-03T16:19:56.255Z,14.30
2017-10-03T16:22:23.717Z,14.30
2017-10-03T16:24:51.219Z,14.30
2017-10-03T16:27:18.672Z,14.20
2017-10-03T16:29:46.148Z,14.30
2017-10-03T16:32:13.606Z,14.30
2017-10-03T16:34:41.187Z,14.30
2017-10-03T16:37:08.656Z,14.40
2017-10-03T16:39:36.119Z,14.30
2017-10-03T16:42:04.351Z,14.30
2017-10-03T16:44:31.810Z,14.20
2017-10-03T16:46:59.286Z,14.30
2017-10-03T16:49:26.750Z,14.30
2017-10-03T16:51:54.219Z,14.40
2017-10-03T16:54:21.679Z,14.20
2017-10-03T16:56:49.910Z,13.80
2017-10-03T16:59:17.371Z,13.70
2017-10-03T17:01:44.847Z,13.60
2017-10-03T17:04:12.303Z,13.40
2017-10-03T17:06:39.775Z,13.30
2017-10-03T17:09:07.230Z,13.20
2017-10-03T17:11:34.694Z,12.90
2017-10-03T17:14:02.154Z,12.80
2017-10-03T17:16:29.619Z,12.80
2017-10-03T17:18:57.083Z,12.70
2017-10-03T17:21:26.035Z,12.70
2017-10-03T17:23:53.592Z,12.60
2017-10-03T17:26:21.131Z,12.50
2017-10-03T17:28:49.364Z,12.30
2017-10-03T17:31:16.834Z,12.30
2017-10-03T17:33:45.053Z,12.20
2017-10-03T17:36:12.535Z,12.20
2017-10-03T17:38:39.986Z,12.20
2017-10-03T17:41:07.462Z,12.20
2017-10-03T17:43:34.922Z,12.20
2017-10-03T17:46:02.382Z,12.30
2017-10-03T17:48:29.845Z,12.30
2017-10-03T17:50:57.317Z,12.30
2017-10-03T17:53:25.545Z,12.30
2017-10-03T17:55:53.011Z,12.20
2017-10-03T17:58:20.496Z,12.30
2017-10-03T18:00:48.756Z,12.30
2017-10-03T18:03:16.229Z,12.30
2017-10-03T18:05:43.705Z,12.30
2017-10-03T18:08:11.939Z,12.20
2017-10-03T18:10:39.408Z,12.30
2017-10-03T18:13:06.869Z,12.20
2017-10-03T18:15:34.607Z,12.30
2017-10-03T18:18:02.062Z,12.30
2017-10-03T18:20:29.533Z,12.30
2017-10-03T18:22:57.000Z,12.30
2017-10-03T18:25:25.269Z,12.20
2017-10-03T18:27:52.738Z,12.20
2017-10-03T18:30:20.220Z,12.20
2017-10-03T18:32:47.716Z,12.20
2017-10-03T18:35:15.968Z,12.20
2017-10-03T18:37:43.452Z,12.10
2017-10-03T18:40:10.923Z,12.10
2017-10-03T18:42:39.213Z,12.00
2017-10-03T18:45:06.735Z,12.00
2017-10-03T18:47:35.027Z,12.00
2017-10-03T18:50:03.303Z,11.90
2017-10-03T18:52:31.549Z,11.90
2017-10-03T18:54:59.030Z,11.90
2017-10-03T18:57:26.501Z,11.90
2017-10-03T18:59:54.767Z,11.80
2017-10-03T19:02:23.010Z,11.90
2017-10-03T19:04:50.544Z,12.10
2017-10-03T19:07:18.096Z,11.80
2017-10-03T19:09:45.598Z,11.80
2017-10-03T19:12:13.059Z,11.80
2017-10-03T19:14:40.553Z,11.80
2017-10-03T19:17:08.819Z,11.80
2017-10-03T19:19:37.075Z,11.70
2017-10-03T19:22:04.571Z,11.70
2017-10-03T19:24:32.059Z,11.70
2017-10-03T19:26:59.543Z,11.70
2017-10-03T19:29:27.125Z,11.70
2017-10-03T19:31:54.584Z,11.70
2017-10-03T19:34:22.143Z,11.70
2017-10-03T19:36:49.698Z,11.70
2017-10-03T19:39:17.155Z,11.70
2017-10-03T19:41:44.714Z,11.70
2017-10-03T19:44:12.181Z,11.80
2017-10-03T19:46:39.671Z,11.70
2017-10-03T19:49:07.151Z,11.80
2017-10-03T19:51:35.392Z,11.90
2017-10-03T19:54:03.610Z,11.90
2017-10-03T19:56:31.075Z,12.10
2017-10-03T19:58:58.544Z,11.90
2017-10-03T20:01:26.950Z,12.00
2017-10-03T20:03:55.429Z,12.00
2017-10-03T20:06:22.991Z,12.00
2017-10-03T20:08:50.445Z,12.00
2017-10-03T20:11:18.015Z,12.00
2017-10-03T20:13:46.745Z,12.00
2017-10-03T20:16:15.108Z,12.00
2017-10-03T20:18:43.882Z,12.00
2017-10-03T20:21:11.601Z,12.00
2017-10-03T20:23:39.086Z,12.00
2017-10-03T20:26:06.913Z,12.00
2017-10-03T20:28:34.419Z,12.00
2017-10-03T20:31:01.875Z,12.00
2017-10-03T20:33:29.438Z,12.00
2017-10-03T20:35:56.922Z,12.00
2017-10-03T20:38:25.267Z,12.00
2017-10-03T20:40:52.729Z,12.00
2017-10-03T20:43:20.213Z,12.00
2017-10-03T20:45:48.437Z,11.90
2017-10-03T20:48:15.907Z,11.90
2017-10-03T20:50:43.475Z,12.00
2017-10-03T20:53:10.953Z,12.00
2017-10-03T20:55:38.496Z,12.00
2017-10-03T20:58:05.962Z,12.00
2017-10-03T21:00:33.423Z,12.00
2017-10-03T21:03:02.411Z,12.00
2017-10-03T21:05:29.888Z,12.00
2017-10-03T21:07:58.137Z,12.00
2017-10-03T21:10:25.737Z,12.00
2017-10-03T21:12:54.023Z,12.00
2017-10-03T21:15:22.254Z,12.00
2017-10-03T21:17:49.732Z,12.00
2017-10-03T21:20:17.990Z,12.00
2017-10-03T21:22:45.473Z,11.90
2017-10-03T21:25:13.705Z,12.00
2017-10-03T21:27:41.180Z,12.00
2017-10-03T21:30:08.648Z,12.00
2017-10-03T21:32:36.119Z,11.90
2017-10-03T21:35:04.355Z,12.00
2017-10-03T21:37:31.831Z,12.00
2017-10-03T21:39:59.307Z,12.00
2017-10-03T21:42:38.628Z,12.00
2017-10-03T21:45:06.105Z,12.00
2017-10-03T21:47:34.346Z,11.90
2017-10-03T21:50:01.820Z,11.90
2017-10-03T21:52:29.283Z,11.90
2017-10-03T21:54:56.876Z,11.90
2017-10-03T21:57:24.366Z,11.90
2017-10-03T21:59:51.840Z,11.90
2017-10-03T22:02:19.307Z,11.90
2017-10-03T22:04:46.779Z,11.90
2017-10-03T22:07:14.229Z,11.90
2017-10-03T22:09:41.728Z,11.80
2017-10-03T22:12:09.224Z,11.80
2017-10-03T22:14:36.703Z,11.90
2017-10-03T22:17:04.212Z,11.80
2017-10-03T22:19:31.689Z,11.80
2017-10-03T22:21:59.433Z,11.80
2017-10-03T22:24:26.889Z,11.80
2017-10-03T22:26:54.370Z,11.80
2017-10-03T22:29:21.845Z,11.80
2017-10-03T22:31:49.315Z,11.80
2017-10-03T22:34:16.783Z,11.80
2017-10-03T22:36:44.266Z,11.80
2017-10-03T22:39:12.489Z,11.80
2017-10-03T22:41:39.954Z,12.00
2017-10-03T22:44:07.427Z,11.80
2017-10-03T22:46:34.894Z,11.80
2017-10-03T22:49:02.358Z,11.80
2017-10-03T22:51:35.512Z,11.90
2017-10-03T22:54:03.040Z,11.80
2017-10-03T22:56:30.515Z,11.80
2017-10-03T22:58:57.986Z,11.80
2017-10-03T23:01:25.471Z,11.80
2017-10-03T23:03:52.936Z,11.80
2017-10-03T23:06:20.417Z,11.80
2017-10-03T23:08:48.672Z,11.80
2017-10-03T23:11:16.206Z,11.80
2017-10-03T23:13:43.686Z,11.80
2017-10-03T23:16:11.152Z,11.80
2017-10-03T23:18:38.657Z,11.70
2017-10-03T23:21:06.129Z,11.80
2017-10-03T23:23:33.598Z,11.80
2017-10-03T23:26:01.068Z,11.80
2017-10-03T23:28:28.535Z,11.70
2017-10-03T23:30:56.000Z,11.70
2017-10-03T23:33:23.583Z,11.70
2017-10-03T23:35:54.891Z,11.80
2017-10-03T23:38:22.395Z,11.80
2017-10-03T23:40:49.919Z,11.80
2017-10-03T23:43:18.159Z,11.90
2017-10-03T23:45:45.661Z,11.90
2017-10-03T23:48:13.907Z,11.90
2017-10-03T23:50:41.467Z,11.90
2017-10-03T23:53:08.927Z,11.90
2017-10-03T23:55:36.394Z,11.90
2017-10-03T23:58:03.856Z,11.90
